• Join FlightAware (Why Join?)
  • Login
  • US Flag 
09:47AM EDT


 

Airport Tracker/Info


-or-


 

Live Flight TrackerFlight Track Log ✈ N163CD ✈ 16-Aug-2013 ✈ KHAI - KLUK

Flight Track Log - Related Links

Times and Time Zones

All times are in EDT time to prevent confusion due to time zone crossing. See the N163CD flight status page for this flight to view local times or setup timezone preferences in your user account.

Time Position Orientation Groundspeed Altitude Reporting Facility
EDT Latitude Longitude Course Direction KTS MPH feet Rate Location/Type
07:46PM 41.8319 -85.5639 162° South 127 146 2,700  Level Chicago Center
07:47PM 41.7992 -85.5481 160° South 127 146 3,100 360 Climbing Chicago Center
07:48PM 41.7669 -85.5300 157° South 126 145 3,500 300 Climbing Chicago Center
07:49PM 41.7356 -85.5111 156° South 124 143 3,800 180 Climbing Chicago Center
07:50PM 41.7343 -85.4964 163° South  Level Estimated
07:50PM 41.6928 -85.4950 164° South 133 153 3,900  Level Chicago Center
07:51PM 41.6968 -85.4799 162° South  Level FlightAware Approximate
07:51PM 41.6556 -85.4800 163° South 137 158 3,900  Level Chicago Center
07:52PM 41.6189 -85.4586 156° South 142 163 3,800 -60 Descending Chicago Center
07:53PM 41.5833 -85.4364 155° Southeast 145 167 3,800  Level Chicago Center
07:54PM 41.5394 -85.4139 159° South 143 165 3,900  Climbing Chicago Center
07:55PM 41.5008 -85.4017 167° South 142 163 3,800  Descending Chicago Center
07:56PM 41.4592 -85.3950 173° South 145 167 3,900  Climbing Chicago Center
07:57PM 41.4194 -85.3894 174° South 146 168 3,900  Level Chicago Center
07:58PM 41.3783 -85.3819 172° South 146 168 3,900  Level Chicago Center
07:59PM 41.3294 -85.3725 172° South 148 170 3,900  Level Chicago Center
08:00PM 41.2900 -85.3628 170° South 146 168 3,900  Level Chicago Center
08:01PM 41.2525 -85.3475 163° South 144 166 3,900  Level Chicago Center
08:02PM 41.2158 -85.3264 157° South 143 165 3,900 -60 Level Chicago Center
08:03PM 41.1794 -85.3064 158° South 143 165 3,800  Descending Chicago Center
08:04PM 41.1431 -85.2850 156° South 143 165 3,900  Climbing Chicago Center
08:05PM 41.0983 -85.2603 157° South 144 166 3,900  Level Chicago Center
08:06PM 41.0608 -85.2406 158° South 145 167 3,900  Level Chicago Center
08:07PM 41.0236 -85.2217 159° South 145 167 3,900  Level Chicago Center
08:08PM 40.9858 -85.2039 160° South 144 166 3,900  Level Chicago Center
08:10PM 40.9483 -85.1847 159° South 145 167 3,900  Level Chicago Center
08:11PM 40.9103 -85.1658 159° South 146 168 3,900 120 Level Chicago Center
08:12PM 40.8675 -85.1458 161° South 140 161 4,200 240 Climbing Chicago Center
08:13PM 40.8336 -85.1308 161° South 134 154 4,500 240 Climbing Chicago Center
08:14PM 40.7997 -85.1156 161° South 131 151 4,800 180 Climbing Chicago Center
08:15PM 40.7650 -85.1011 163° South 130 150 4,900  Climbing Chicago Center
08:16PM 40.7278 -85.0847 162° South 137 158 4,900  Level Chicago Center
08:17PM 40.6894 -85.0681 162° South 143 165 4,900  Level Chicago Center
08:18PM 40.6461 -85.0481 161° South 148 170 4,900  Level Chicago Center
08:19PM 40.6089 -85.0308 161° South 145 167 4,900  Level Chicago Center
08:20PM 40.5639 -85.0094 160° South 143 165 4,900  Level Chicago Center
08:21PM 40.5264 -84.9906 159° South 144 166 4,900  Level Chicago Center
08:22PM 40.4886 -84.9739 161° South 143 165 4,900  Level Chicago Center
08:23PM 40.4492 -84.9578 163° South 146 168 4,900  Level Chicago Center
08:24PM 40.4114 -84.9411 161° South 144 166 4,900  Level Chicago Center
08:25PM 40.3733 -84.9236 161° South 145 167 4,900  Level Chicago Center
08:26PM 40.3447 -84.9114 162° South 145 167 4,900  Level Indianapolis Center
08:26PM 40.3150 -84.8964 159° South 144 166 4,900  Level Indianapolis Center
08:28PM 40.2775 -84.8781 160° South 143 165 4,900  Level Indianapolis Center
08:29PM 40.2400 -84.8622 162° South 142 163 4,900  Level Indianapolis Center
08:30PM 40.1922 -84.8439 164° South 143 165 4,900  Level Indianapolis Center
08:31PM 40.1539 -84.8283 163° South 141 162 4,900  Level Indianapolis Center
08:32PM 40.1208 -84.8158 164° South 139 160 4,900  Level Indianapolis Center
08:33PM 40.0814 -84.8017 165° South 142 163 4,900  Level Indianapolis Center
08:34PM 40.0431 -84.7886 165° South 142 163 4,900  Level Indianapolis Center
08:35PM 40.0067 -84.7733 162° South 139 160 4,900  Level Indianapolis Center
08:36PM 39.9700 -84.7569 161° South 139 160 4,900  Level Indianapolis Center
08:37PM 39.9258 -84.7392 163° South 141 162 4,900  Level Indianapolis Center
08:38PM 39.8947 -84.7231 158° South 142 163 4,900  Level Indianapolis Center
08:39PM 39.8572 -84.7061 161° South 142 163 4,900 -120 Level Indianapolis Center
08:40PM 39.8197 -84.6894 161° South 141 162 4,700 -300 Descending Indianapolis Center
08:41PM 39.7736 -84.6697 162° South 152 175 4,400 -300 Descending Indianapolis Center
08:42PM 39.7331 -84.6508 160° South 150 173 4,200 -240 Descending Indianapolis Center
08:43PM 39.6928 -84.6339 162° South 151 174 4,000 -180 Descending Indianapolis Center
08:44PM 39.6531 -84.6164 161° South 151 174 3,900 -60 Descending Indianapolis Center
08:45PM 39.6142 -84.6003 162° South 149 171 3,900  Level Indianapolis Center
08:46PM 39.5778 -84.5836 161° South 144 166 3,900 -120 Level Indianapolis Center
08:47PM 39.5397 -84.5678 162° South 143 165 3,700 -240 Descending Indianapolis Center
08:48PM 39.5006 -84.5522 163° South 144 166 3,500 -240 Descending Indianapolis Center
08:49PM 39.4611 -84.5356 162° South 146 168 3,300 -240 Descending Indianapolis Center
08:50PM 39.4192 -84.5194 163° South 149 171 3,100 -240 Descending Indianapolis Center
08:51PM 39.3781 -84.5044 164° South 152 175 2,900 -180 Descending Indianapolis Center
08:52PM 39.3292 -84.4842 162° South 154 177 2,800 -60 Descending Indianapolis Center
08:53PM 39.2889 -84.4678 163° South 154 177 2,800  Level Indianapolis Center
08:54PM 39.2497 -84.4525 163° South 150 173 2,800  Level Indianapolis Center
08:55PM 39.2119 -84.4397 165° South 150 173 2,800 -240 Level Indianapolis Center
08:57PM 39.1167 -84.4667 192° South 146 168 2,100 -360 Descending Cincinnati TRACON
08:58PM 39.1000 -84.4500 142° Southeast 94 108 1,700 -600 Descending Cincinnati TRACON
08:59PM 39.0833 -84.4333 142° Southeast 95 109 1,000 -720 Descending Cincinnati TRACON
09:01PM 39.1033 -84.4186 38° Northeast  Level Estimated
09:08PM 39.1000 -84.4167 165° South  Level FlightAware Approximate